sensor_id;sensor_type;location;lat;lon;timestamp;temperature;humidity
9598;DHT22;4837;50.890;4.724;2023-08-12T00:00:21;21.80;99.90
9598;DHT22;4837;50.890;4.724;2023-08-12T00:02:47;21.80;99.90
9598;DHT22;4837;50.890;4.724;2023-08-12T00:05:13;21.80;99.90
9598;DHT22;4837;50.890;4.724;2023-08-12T00:07:39;21.80;99.90
9598;DHT22;4837;50.890;4.724;2023-08-12T00:10:09;21.80;99.90
9598;DHT22;4837;50.890;4.724;2023-08-12T00:12:35;21.80;99.90
9598;DHT22;4837;50.890;4.724;2023-08-12T00:15:02;21.90;99.90
9598;DHT22;4837;50.890;4.724;2023-08-12T00:17:30;21.90;99.90
9598;DHT22;4837;50.890;4.724;2023-08-12T00:19:55;21.80;99.90
9598;DHT22;4837;50.890;4.724;2023-08-12T00:22:22;21.70;99.90
9598;DHT22;4837;50.890;4.724;2023-08-12T00:24:48;21.60;99.90
9598;DHT22;4837;50.890;4.724;2023-08-12T00:27:14;21.60;99.90
9598;DHT22;4837;50.890;4.724;2023-08-12T00:29:39;21.40;99.90
9598;DHT22;4837;50.890;4.724;2023-08-12T00:32:05;21.30;99.90
9598;DHT22;4837;50.890;4.724;2023-08-12T00:34:31;21.20;99.90
9598;DHT22;4837;50.890;4.724;2023-08-12T00:36:57;21.10;99.90
9598;DHT22;4837;50.890;4.724;2023-08-12T00:39:22;21.10;99.90
9598;DHT22;4837;50.890;4.724;2023-08-12T00:41:48;21.10;99.90
9598;DHT22;4837;50.890;4.724;2023-08-12T00:44:14;21.10;99.90
9598;DHT22;4837;50.890;4.724;2023-08-12T00:46:41;21.00;99.90
9598;DHT22;4837;50.890;4.724;2023-08-12T00:49:08;21.00;99.90
9598;DHT22;4837;50.890;4.724;2023-08-12T00:51:35;21.00;99.90
9598;DHT22;4837;50.890;4.724;2023-08-12T00:54:03;21.00;99.90
9598;DHT22;4837;50.890;4.724;2023-08-12T00:56:31;21.10;99.90
9598;DHT22;4837;50.890;4.724;2023-08-12T00:58:59;21.20;99.90
9598;DHT22;4837;50.890;4.724;2023-08-12T01:01:25;21.30;99.90
9598;DHT22;4837;50.890;4.724;2023-08-12T01:03:52;21.30;99.90
9598;DHT22;4837;50.890;4.724;2023-08-12T01:06:18;21.20;99.90
9598;DHT22;4837;50.890;4.724;2023-08-12T01:08:44;21.10;99.90
9598;DHT22;4837;50.890;4.724;2023-08-12T01:11:14;21.00;99.90
9598;DHT22;4837;50.890;4.724;2023-08-12T01:13:52;21.10;99.90
9598;DHT22;4837;50.890;4.724;2023-08-12T01:16:25;21.00;99.90
9598;DHT22;4837;50.890;4.724;2023-08-12T01:18:54;21.00;99.90
9598;DHT22;4837;50.890;4.724;2023-08-12T01:21:21;20.90;99.90
9598;DHT22;4837;50.890;4.724;2023-08-12T01:23:50;20.80;99.90
9598;DHT22;4837;50.890;4.724;2023-08-12T01:26:16;20.90;99.90
9598;DHT22;4837;50.890;4.724;2023-08-12T01:28:41;21.10;99.90
9598;DHT22;4837;50.890;4.724;2023-08-12T01:33:58;21.20;99.90
9598;DHT22;4837;50.890;4.724;2023-08-12T01:36:28;21.20;99.90
9598;DHT22;4837;50.890;4.724;2023-08-12T01:38:55;21.30;99.90
9598;DHT22;4837;50.890;4.724;2023-08-12T01:41:23;21.10;99.90
9598;DHT22;4837;50.890;4.724;2023-08-12T01:43:49;21.10;99.90
9598;DHT22;4837;50.890;4.724;2023-08-12T01:46:15;21.10;99.90
9598;DHT22;4837;50.890;4.724;2023-08-12T01:48:41;21.10;99.90
9598;DHT22;4837;50.890;4.724;2023-08-12T01:51:07;21.10;99.90
9598;DHT22;4837;50.890;4.724;2023-08-12T01:53:33;21.00;99.90
9598;DHT22;4837;50.890;4.724;2023-08-12T01:55:58;21.10;99.90
9598;DHT22;4837;50.890;4.724;2023-08-12T01:58:24;21.00;99.90
9598;DHT22;4837;50.890;4.724;2023-08-12T02:00:52;21.00;99.90
9598;DHT22;4837;50.890;4.724;2023-08-12T02:03:18;20.90;99.90
9598;DHT22;4837;50.890;4.724;2023-08-12T02:05:44;21.00;99.90
9598;DHT22;4837;50.890;4.724;2023-08-12T02:08:09;21.10;99.90
9598;DHT22;4837;50.890;4.724;2023-08-12T02:10:35;21.10;99.90
9598;DHT22;4837;50.890;4.724;2023-08-12T02:13:01;21.30;99.90
9598;DHT22;4837;50.890;4.724;2023-08-12T02:15:28;21.20;99.90
9598;DHT22;4837;50.890;4.724;2023-08-12T02:17:54;21.10;99.90
9598;DHT22;4837;50.890;4.724;2023-08-12T02:20:20;21.00;99.90
9598;DHT22;4837;50.890;4.724;2023-08-12T02:22:45;20.90;99.90
9598;DHT22;4837;50.890;4.724;2023-08-12T02:25:11;20.80;99.90
9598;DHT22;4837;50.890;4.724;2023-08-12T02:27:37;20.70;99.90
9598;DHT22;4837;50.890;4.724;2023-08-12T02:30:03;20.70;99.90
9598;DHT22;4837;50.890;4.724;2023-08-12T02:32:29;20.70;99.90
9598;DHT22;4837;50.890;4.724;2023-08-12T02:34:55;20.70;99.90
9598;DHT22;4837;50.890;4.724;2023-08-12T02:37:20;20.70;99.90
9598;DHT22;4837;50.890;4.724;2023-08-12T02:39:47;20.70;99.90
9598;DHT22;4837;50.890;4.724;2023-08-12T02:42:12;20.80;99.90
9598;DHT22;4837;50.890;4.724;2023-08-12T02:44:38;20.80;99.90
9598;DHT22;4837;50.890;4.724;2023-08-12T02:47:04;20.70;99.90
9598;DHT22;4837;50.890;4.724;2023-08-12T02:49:29;20.70;99.90
9598;DHT22;4837;50.890;4.724;2023-08-12T02:51:55;20.80;99.90
9598;DHT22;4837;50.890;4.724;2023-08-12T02:54:21;20.80;99.90
9598;DHT22;4837;50.890;4.724;2023-08-12T02:56:47;20.80;99.90
9598;DHT22;4837;50.890;4.724;2023-08-12T02:59:12;20.90;99.90
9598;DHT22;4837;50.890;4.724;2023-08-12T03:01:41;20.80;99.90
9598;DHT22;4837;50.890;4.724;2023-08-12T03:04:07;20.80;99.90
9598;DHT22;4837;50.890;4.724;2023-08-12T03:06:33;20.90;99.90
9598;DHT22;4837;50.890;4.724;2023-08-12T03:08:58;21.00;99.90
9598;DHT22;4837;50.890;4.724;2023-08-12T03:11:24;21.00;99.90
9598;DHT22;4837;50.890;4.724;2023-08-12T03:13:50;21.00;99.90
9598;DHT22;4837;50.890;4.724;2023-08-12T03:16:16;21.10;99.90
9598;DHT22;4837;50.890;4.724;2023-08-12T03:18:42;21.10;99.90
9598;DHT22;4837;50.890;4.724;2023-08-12T03:21:08;21.20;99.90
9598;DHT22;4837;50.890;4.724;2023-08-12T03:23:37;21.20;99.90
9598;DHT22;4837;50.890;4.724;2023-08-12T03:26:03;21.00;99.90
9598;DHT22;4837;50.890;4.724;2023-08-12T03:28:30;20.90;99.90
9598;DHT22;4837;50.890;4.724;2023-08-12T03:30:56;20.90;99.90
9598;DHT22;4837;50.890;4.724;2023-08-12T03:33:22;20.80;99.90
9598;DHT22;4837;50.890;4.724;2023-08-12T03:35:49;20.80;99.90
9598;DHT22;4837;50.890;4.724;2023-08-12T03:38:15;20.80;99.90
9598;DHT22;4837;50.890;4.724;2023-08-12T03:40:41;20.90;99.90
9598;DHT22;4837;50.890;4.724;2023-08-12T03:43:07;20.80;99.90
9598;DHT22;4837;50.890;4.724;2023-08-12T03:45:39;20.80;99.90
9598;DHT22;4837;50.890;4.724;2023-08-12T03:48:06;20.80;99.90
9598;DHT22;4837;50.890;4.724;2023-08-12T03:50:35;20.70;99.90
9598;DHT22;4837;50.890;4.724;2023-08-12T03:53:01;20.80;99.90
9598;DHT22;4837;50.890;4.724;2023-08-12T03:55:27;20.80;99.90
9598;DHT22;4837;50.890;4.724;2023-08-12T03:57:52;20.80;99.90
9598;DHT22;4837;50.890;4.724;2023-08-12T04:00:18;20.90;99.90
9598;DHT22;4837;50.890;4.724;2023-08-12T04:02:44;20.90;99.90
9598;DHT22;4837;50.890;4.724;2023-08-12T04:05:09;20.90;99.90
9598;DHT22;4837;50.890;4.724;2023-08-12T04:07:38;20.80;99.90
9598;DHT22;4837;50.890;4.724;2023-08-12T04:10:04;20.80;99.90
9598;DHT22;4837;50.890;4.724;2023-08-12T04:12:30;20.90;99.90
9598;DHT22;4837;50.890;4.724;2023-08-12T04:14:56;20.90;99.90
9598;DHT22;4837;50.890;4.724;2023-08-12T04:17:22;20.80;99.90
9598;DHT22;4837;50.890;4.724;2023-08-12T04:19:47;20.70;99.90
9598;DHT22;4837;50.890;4.724;2023-08-12T04:22:14;20.60;99.90
9598;DHT22;4837;50.890;4.724;2023-08-12T04:24:40;20.50;99.90
9598;DHT22;4837;50.890;4.724;2023-08-12T04:27:06;20.50;99.90
9598;DHT22;4837;50.890;4.724;2023-08-12T04:29:31;20.60;99.90
9598;DHT22;4837;50.890;4.724;2023-08-12T04:31:57;20.60;99.90
9598;DHT22;4837;50.890;4.724;2023-08-12T04:34:23;20.60;99.90
9598;DHT22;4837;50.890;4.724;2023-08-12T04:36:48;20.60;99.90
9598;DHT22;4837;50.890;4.724;2023-08-12T04:39:14;20.60;99.90
9598;DHT22;4837;50.890;4.724;2023-08-12T04:41:40;20.60;99.90
9598;DHT22;4837;50.890;4.724;2023-08-12T04:44:06;20.60;99.90
9598;DHT22;4837;50.890;4.724;2023-08-12T04:46:32;20.60;99.90
9598;DHT22;4837;50.890;4.724;2023-08-12T04:48:58;20.60;99.90
9598;DHT22;4837;50.890;4.724;2023-08-12T04:51:23;20.40;99.90
9598;DHT22;4837;50.890;4.724;2023-08-12T04:53:49;20.50;99.90
9598;DHT22;4837;50.890;4.724;2023-08-12T04:56:15;20.60;99.90
9598;DHT22;4837;50.890;4.724;2023-08-12T04:58:41;20.60;99.90
9598;DHT22;4837;50.890;4.724;2023-08-12T05:01:07;20.60;99.90
9598;DHT22;4837;50.890;4.724;2023-08-12T05:03:33;20.60;99.90
9598;DHT22;4837;50.890;4.724;2023-08-12T05:05:59;20.70;99.90
9598;DHT22;4837;50.890;4.724;2023-08-12T05:08:25;20.70;99.90
9598;DHT22;4837;50.890;4.724;2023-08-12T05:10:50;20.70;99.90
9598;DHT22;4837;50.890;4.724;2023-08-12T05:13:17;20.70;99.90
9598;DHT22;4837;50.890;4.724;2023-08-12T05:15:46;20.70;99.90
9598;DHT22;4837;50.890;4.724;2023-08-12T05:18:15;20.70;99.90
9598;DHT22;4837;50.890;4.724;2023-08-12T05:20:42;20.70;99.90
9598;DHT22;4837;50.890;4.724;2023-08-12T05:23:08;20.70;99.90
9598;DHT22;4837;50.890;4.724;2023-08-12T05:25:34;20.70;99.90
9598;DHT22;4837;50.890;4.724;2023-08-12T05:28:00;20.70;99.90
9598;DHT22;4837;50.890;4.724;2023-08-12T05:30:25;20.60;99.90
9598;DHT22;4837;50.890;4.724;2023-08-12T05:32:51;20.60;99.90
9598;DHT22;4837;50.890;4.724;2023-08-12T05:35:17;20.60;99.90
9598;DHT22;4837;50.890;4.724;2023-08-12T05:37:43;20.60;99.90
9598;DHT22;4837;50.890;4.724;2023-08-12T05:40:09;20.60;99.90
9598;DHT22;4837;50.890;4.724;2023-08-12T05:42:35;20.70;99.90
9598;DHT22;4837;50.890;4.724;2023-08-12T05:45:01;20.70;99.90
9598;DHT22;4837;50.890;4.724;2023-08-12T05:47:27;20.70;99.90
9598;DHT22;4837;50.890;4.724;2023-08-12T05:49:53;20.70;99.90
9598;DHT22;4837;50.890;4.724;2023-08-12T05:52:19;20.70;99.90
9598;DHT22;4837;50.890;4.724;2023-08-12T05:54:44;20.70;99.90
9598;DHT22;4837;50.890;4.724;2023-08-12T05:57:10;20.70;99.90
9598;DHT22;4837;50.890;4.724;2023-08-12T05:59:36;20.70;99.90
9598;DHT22;4837;50.890;4.724;2023-08-12T06:02:01;20.80;99.90
9598;DHT22;4837;50.890;4.724;2023-08-12T06:04:27;20.80;99.90
9598;DHT22;4837;50.890;4.724;2023-08-12T06:06:53;20.80;99.90
9598;DHT22;4837;50.890;4.724;2023-08-12T06:09:19;20.80;99.90
9598;DHT22;4837;50.890;4.724;2023-08-12T06:11:44;20.80;99.90
9598;DHT22;4837;50.890;4.724;2023-08-12T06:14:10;20.70;99.90
9598;DHT22;4837;50.890;4.724;2023-08-12T06:16:36;20.80;99.90
9598;DHT22;4837;50.890;4.724;2023-08-12T06:19:01;20.70;99.90
9598;DHT22;4837;50.890;4.724;2023-08-12T06:21:27;20.70;99.90
9598;DHT22;4837;50.890;4.724;2023-08-12T06:23:53;20.80;99.90
9598;DHT22;4837;50.890;4.724;2023-08-12T06:26:18;20.70;99.90
9598;DHT22;4837;50.890;4.724;2023-08-12T06:28:44;20.70;99.90
9598;DHT22;4837;50.890;4.724;2023-08-12T06:31:10;20.60;99.90
9598;DHT22;4837;50.890;4.724;2023-08-12T06:33:36;20.70;99.90
9598;DHT22;4837;50.890;4.724;2023-08-12T06:36:02;20.70;99.90
9598;DHT22;4837;50.890;4.724;2023-08-12T06:38:28;20.80;99.90
9598;DHT22;4837;50.890;4.724;2023-08-12T06:40:54;20.70;99.90
9598;DHT22;4837;50.890;4.724;2023-08-12T06:43:20;20.80;99.90
9598;DHT22;4837;50.890;4.724;2023-08-12T06:45:46;20.80;99.90
9598;DHT22;4837;50.890;4.724;2023-08-12T06:48:12;20.80;99.90
9598;DHT22;4837;50.890;4.724;2023-08-12T06:50:37;20.90;99.90
9598;DHT22;4837;50.890;4.724;2023-08-12T06:53:03;20.80;99.90
9598;DHT22;4837;50.890;4.724;2023-08-12T06:55:29;20.90;99.90
9598;DHT22;4837;50.890;4.724;2023-08-12T06:57:55;20.90;99.90
9598;DHT22;4837;50.890;4.724;2023-08-12T07:00:21;20.90;99.90
9598;DHT22;4837;50.890;4.724;2023-08-12T07:02:47;21.00;99.90
9598;DHT22;4837;50.890;4.724;2023-08-12T07:05:12;21.00;99.90
9598;DHT22;4837;50.890;4.724;2023-08-12T07:07:38;21.00;99.90
9598;DHT22;4837;50.890;4.724;2023-08-12T07:10:04;21.00;99.90
9598;DHT22;4837;50.890;4.724;2023-08-12T07:12:32;21.00;99.90
9598;DHT22;4837;50.890;4.724;2023-08-12T07:14:58;21.10;99.90
9598;DHT22;4837;50.890;4.724;2023-08-12T07:17:24;21.10;99.90
9598;DHT22;4837;50.890;4.724;2023-08-12T07:19:50;21.10;99.90
9598;DHT22;4837;50.890;4.724;2023-08-12T07:22:16;21.00;99.90
9598;DHT22;4837;50.890;4.724;2023-08-12T07:24:45;21.00;99.90
9598;DHT22;4837;50.890;4.724;2023-08-12T07:27:10;21.00;99.90
9598;DHT22;4837;50.890;4.724;2023-08-12T07:29:36;21.10;99.90
9598;DHT22;4837;50.890;4.724;2023-08-12T07:32:02;21.10;99.90
9598;DHT22;4837;50.890;4.724;2023-08-12T07:34:28;21.20;99.90
9598;DHT22;4837;50.890;4.724;2023-08-12T07:36:54;21.30;99.90
9598;DHT22;4837;50.890;4.724;2023-08-12T07:39:19;21.20;99.90
9598;DHT22;4837;50.890;4.724;2023-08-12T07:41:45;21.30;99.90
9598;DHT22;4837;50.890;4.724;2023-08-12T07:44:11;21.30;99.90
9598;DHT22;4837;50.890;4.724;2023-08-12T07:46:36;21.40;99.90
9598;DHT22;4837;50.890;4.724;2023-08-12T07:49:02;21.30;99.90
9598;DHT22;4837;50.890;4.724;2023-08-12T07:51:28;21.40;99.90
9598;DHT22;4837;50.890;4.724;2023-08-12T07:53:53;21.40;99.90
9598;DHT22;4837;50.890;4.724;2023-08-12T07:56:19;21.30;99.90
9598;DHT22;4837;50.890;4.724;2023-08-12T07:58:45;21.40;99.90
9598;DHT22;4837;50.890;4.724;2023-08-12T08:01:11;21.40;99.90
9598;DHT22;4837;50.890;4.724;2023-08-12T08:03:38;21.30;99.90
9598;DHT22;4837;50.890;4.724;2023-08-12T08:06:04;21.30;99.90
9598;DHT22;4837;50.890;4.724;2023-08-12T08:08:29;21.30;99.90
9598;DHT22;4837;50.890;4.724;2023-08-12T08:10:55;21.40;99.90
9598;DHT22;4837;50.890;4.724;2023-08-12T08:13:21;21.30;99.90
9598;DHT22;4837;50.890;4.724;2023-08-12T08:15:47;21.00;99.90
9598;DHT22;4837;50.890;4.724;2023-08-12T08:18:12;21.10;99.90
9598;DHT22;4837;50.890;4.724;2023-08-12T08:20:38;21.10;99.90
9598;DHT22;4837;50.890;4.724;2023-08-12T08:23:04;21.10;99.90
9598;DHT22;4837;50.890;4.724;2023-08-12T08:25:29;21.10;99.90
9598;DHT22;4837;50.890;4.724;2023-08-12T08:27:55;21.10;99.90
9598;DHT22;4837;50.890;4.724;2023-08-12T08:30:21;21.10;99.90
9598;DHT22;4837;50.890;4.724;2023-08-12T08:32:48;21.10;99.90
9598;DHT22;4837;50.890;4.724;2023-08-12T08:35:14;21.10;99.90
9598;DHT22;4837;50.890;4.724;2023-08-12T08:37:40;21.20;99.90
9598;DHT22;4837;50.890;4.724;2023-08-12T08:40:07;21.20;99.90
9598;DHT22;4837;50.890;4.724;2023-08-12T08:42:34;21.20;99.90
9598;DHT22;4837;50.890;4.724;2023-08-12T08:45:01;21.20;99.90
9598;DHT22;4837;50.890;4.724;2023-08-12T08:47:29;21.30;99.90
9598;DHT22;4837;50.890;4.724;2023-08-12T08:49:58;21.40;99.90
9598;DHT22;4837;50.890;4.724;2023-08-12T08:52:26;21.60;99.90
9598;DHT22;4837;50.890;4.724;2023-08-12T08:54:52;21.60;99.90
9598;DHT22;4837;50.890;4.724;2023-08-12T08:57:18;21.60;99.90
9598;DHT22;4837;50.890;4.724;2023-08-12T08:59:45;21.70;99.90
9598;DHT22;4837;50.890;4.724;2023-08-12T09:02:16;21.90;99.90
9598;DHT22;4837;50.890;4.724;2023-08-12T09:04:44;22.00;99.90
9598;DHT22;4837;50.890;4.724;2023-08-12T09:07:11;22.30;99.90
9598;DHT22;4837;50.890;4.724;2023-08-12T09:09:46;22.70;99.90
9598;DHT22;4837;50.890;4.724;2023-08-12T09:12:15;22.60;99.90
9598;DHT22;4837;50.890;4.724;2023-08-12T09:14:42;22.50;99.90
9598;DHT22;4837;50.890;4.724;2023-08-12T09:17:09;22.30;99.90
9598;DHT22;4837;50.890;4.724;2023-08-12T09:19:35;22.10;99.90
9598;DHT22;4837;50.890;4.724;2023-08-12T09:22:03;22.00;99.90
9598;DHT22;4837;50.890;4.724;2023-08-12T09:24:29;22.00;99.90
9598;DHT22;4837;50.890;4.724;2023-08-12T09:26:55;22.30;99.90
9598;DHT22;4837;50.890;4.724;2023-08-12T09:29:32;22.30;99.90
9598;DHT22;4837;50.890;4.724;2023-08-12T09:32:09;22.30;99.90
9598;DHT22;4837;50.890;4.724;2023-08-12T09:34:35;22.20;99.90
9598;DHT22;4837;50.890;4.724;2023-08-12T09:37:02;22.20;99.90
9598;DHT22;4837;50.890;4.724;2023-08-12T09:39:29;22.10;99.90
9598;DHT22;4837;50.890;4.724;2023-08-12T09:41:56;22.00;99.90
9598;DHT22;4837;50.890;4.724;2023-08-12T09:44:23;21.70;99.90
9598;DHT22;4837;50.890;4.724;2023-08-12T09:46:56;21.70;99.90
9598;DHT22;4837;50.890;4.724;2023-08-12T09:49:23;21.60;99.90
9598;DHT22;4837;50.890;4.724;2023-08-12T09:51:50;21.70;99.90
9598;DHT22;4837;50.890;4.724;2023-08-12T09:54:17;21.90;99.90
9598;DHT22;4837;50.890;4.724;2023-08-12T09:56:43;22.10;99.90
